Terminal Aerodrome Forecast
Issued by NWS

Current Version | Previous Version | Text Only | Print | Product List | Glossary On
Versions: 1 2 3 4 5 6 7 8 9 10 11 12 13 14 15 16
918
FTUS41 KPHI 250826 CCA
TAFPNE
TAF COR
KPNE 250826Z 2508/2606 26009KT P6SM BKN100
      TEMPO 2509/2510 23010G30KT 4SM TSRA BKN030CB
     FM251300 26009KT P6SM SCT060 BKN150
      TEMPO 2522/2524 5SM -TSRA OVC040CB
     FM260100 27006KT P6SM BKN100=

USA.gov is the U.S. government's official web portal to all federal, state and local government web resources and services.